ADDS METAR Data INFO
IDs: Format: Raw Decoded Include TAF

Data at: 0545 UTC 22 Nov 2017

KJXI 220535Z AUTO 00000KT 10SM SCT037 10/09 A3016 RMK AO2 T00980093
KJXI 220515Z AUTO 32003KT 10SM CLR 09/09 A3016 RMK AO2 T00930089
KJXI 220455Z AUTO 00000KT 10SM SCT032 10/09 A3016 RMK AO2 T00970091
KJXI 220435Z AUTO 00000KT 10SM BKN034 10/09 A3015 RMK AO2 T01030093
KJXI 220415Z AUTO 32003KT 7SM BKN034 BKN050 10/09 A3015 RMK AO2 T00980090
KJXI 220355Z AUTO 00000KT 10SM CLR 11/10 A3014 RMK AO2 T01060095
KJXI 220335Z AUTO 00000KT 10SM CLR 12/10 A3013 RMK AO2 T01160095
KJXI 220315Z AUTO 00000KT 10SM SCT025 12/10 A3013 RMK AO2 T01240097
KJXI 220255Z AUTO 01003KT 10SM SCT025 BKN034 13/10 A3012 RMK AO2 T01310098
KJXI 220235Z AUTO 34004KT 10SM TS BKN025 OVC034 13/10 A3013 RMK AO2 T01330103
KJXI 220215Z AUTO 00000KT 10SM OVC025 14/10 A3011 RMK AO2 T01350102
KJXI 220155Z AUTO 34003KT 10SM BKN025 OVC035 14/11 A3011 RMK AO2 T01350105
KJXI 220135Z AUTO 35003KT 10SM BKN029 OVC035 14/11 A3009 RMK AO2 T01350105
KJXI 220115Z AUTO 36003KT 10SM SCT016 OVC029 13/11 A3007 RMK AO2 T01270107
KJXI 220055Z AUTO 00000KT 10SM SCT014 BKN027 BKN035 12/11 A3006 RMK AO2 T01200105
KJXI 220035Z AUTO 00000KT 10SM SCT035 13/11 A3004 RMK AO2 T01320106
KJXI 220015Z AUTO 00000KT 10SM TS CLR 14/11 A3003 RMK AO2 T01350109
KJXI 212355Z AUTO 00000KT 10SM CLR 14/11 A3002 RMK AO2 T01400109 10186 20140
KJXI 212335Z AUTO 11003KT 10SM BKN016 BKN029 15/11 A3000 RMK AO2 T01450114
KJXI 212315Z AUTO 08003KT 7SM BKN014 BKN028 OVC036 15/11 A3000 RMK AO2 T01500114
KJXI 212255Z AUTO 09003KT 7SM BKN014 OVC034 16/12 A3000 RMK AO2 LTG DSNT S T01550115
KJXI 212235Z AUTO 09004KT 5SM HZ OVC034 16/11 A2999 RMK AO2 LTG DSNT SE T01590112
KJXI 212215Z AUTO 08005KT 5SM HZ SCT019 SCT028 OVC034 16/12 A2999 RMK AO2 T01630115
KJXI 212155Z AUTO 09005KT 10SM BKN019 BKN026 OVC034 17/12 A2998 RMK AO2 LTG DSNT S T01680116
KJXI 212135Z AUTO 09005KT 10SM SCT019 BKN029 OVC034 17/12 A2997 RMK AO2 T01720118
KJXI 212115Z AUTO 07003KT 10SM BKN027 BKN034 17/12 A2996 RMK AO2 T01740118
KJXI 212055Z AUTO 06005KT 10SM BKN027 18/12 A2995 RMK AO2 LTG DSNT S T01800121
KJXI 212035Z AUTO 06004KT 10SM BKN027 BKN031 19/12 A2995 RMK AO2 T01860122
KJXI 212015Z AUTO 09005KT 10SM BKN029 BKN033 18/12 A2995 RMK AO2 T01820123
KJXI 211955Z AUTO 09003KT 10SM BKN029 OVC043 18/12 A2995 RMK AO2 T01780120
KJXI 211935Z AUTO 10003KT 10SM SCT019 SCT024 BKN050 18/12 A2996 RMK AO2 T01790121
KJXI 211915Z AUTO 10003KT 10SM BKN019 18/12 A2995 RMK AO2 T01760120
KJXI 211855Z AUTO 00000KT 10SM OVC019 17/12 A2995 RMK AO2 T01660116
KJXI 211835Z AUTO 00000KT 10SM BKN019 OVC031 16/12 A2996 RMK AO2 T01590115
KJXI 211815Z AUTO 11003KT 10SM TS BKN017 BKN021 OVC047 16/12 A2996 RMK AO2 T01570116
KJXI 211755Z AUTO 00000KT 10SM OVC015 16/11 A2997 RMK AO2 T01560113 10163 20066
KJXI 211735Z AUTO 00000KT 10SM BKN013 OVC029 15/11 A2998 RMK AO2 T01490109
KJXI 211715Z AUTO 14003KT 10SM OVC013 15/11 A2997 RMK AO2 T01450106
KJXI 211655Z AUTO 15004KT 10SM OVC013 14/10 A2997 RMK AO2 T01430102
KJXI 211635Z AUTO 17004KT 10SM BKN013 BKN018 OVC025 14/10 A2996 RMK AO2 T01370098
KJXI 211615Z AUTO 16006KT 10SM TS SCT011 SCT014 BKN023 13/09 A2996 RMK AO2 T01340092
KJXI 211555Z AUTO 16005KT 10SM SCT023 12/08 A2996 RMK AO2 T01210083
KJXI 211535Z AUTO 15005KT 10SM CLR 12/08 A2996 RMK AO2 T01210078
KJXI 211515Z AUTO 16004KT 10SM SCT023 SCT028 SCT034 11/07 A2996 RMK AO2 T01050067
KJXI 211455Z AUTO 16003KT 10SM SCT023 SCT028 BKN036 10/06 A2995 RMK AO2 T01000064
KJXI 211435Z AUTO 17004KT 10SM BKN036 09/06 A2996 RMK AO2 T00910058
KJXI 211415Z AUTO 16004KT 10SM SCT023 SCT030 SCT036 08/05 A2995 RMK AO2 T00830054
KJXI 211355Z AUTO 16004KT 10SM CLR 08/05 A2996 RMK AO2 T00780051
KJXI 211335Z AUTO 15004KT 10SM CLR 07/05 A2995 RMK AO2 T00730049
KJXI 211315Z AUTO 15004KT 10SM CLR 07/05 A2994 RMK AO2 T00700045
KJXI 211255Z AUTO 16003KT 10SM CLR 07/04 A2994 RMK AO2 T00670043
KJXI 211235Z AUTO 16003KT 10SM CLR 07/04 A2993 RMK AO2 T00660041
KJXI 211215Z AUTO 16005KT 10SM CLR 07/04 A2993 RMK AO2 T00660040
KJXI 211155Z AUTO 16005KT 10SM CLR 07/04 A2992 RMK AO2 T00660038 10082 20063
KJXI 211135Z AUTO 16005KT 10SM CLR 07/04 A2992 RMK AO2 T00670037
KJXI 211115Z AUTO 17004KT 10SM CLR 07/04 A2992 RMK AO2 T00650036
KJXI 211055Z AUTO 15004KT 10SM CLR 06/04 A2992 RMK AO2 T00640035
KJXI 211035Z AUTO 16003KT 10SM CLR 06/03 A2993 RMK AO2 T00630033
KJXI 211015Z AUTO 15003KT 10SM TS CLR 07/03 A2994 RMK AO2 T00650032
KJXI 210955Z AUTO 00000KT 10SM CLR 07/03 A2995 RMK AO2 T00660033
KJXI 210935Z AUTO 00000KT 10SM CLR 07/03 A2995 RMK AO2 T00690031
KJXI 210915Z AUTO 16003KT 10SM SCT100 07/03 A2995 RMK AO2 T00700031
KJXI 210855Z AUTO 16004KT 10SM CLR 07/03 A2995 RMK AO2 T00720030
KJXI 210835Z AUTO 16004KT 10SM CLR 07/03 A2995 RMK AO2 T00730030
KJXI 210815Z AUTO 17005KT 10SM CLR 07/03 A2995 RMK AO2 T00740029
KJXI 210755Z AUTO 16005KT 10SM CLR 08/03 A2996 RMK AO2 T00750028
KJXI 210735Z AUTO 16005KT 10SM CLR 08/03 A2996 RMK AO2 T00760027
KJXI 210715Z AUTO 16005KT 10SM CLR 08/03 A2997 RMK AO2 T00780027
KJXI 210655Z AUTO 17004KT 10SM CLR 08/03 A2998 RMK AO2 T00800026
KJXI 210635Z AUTO 16004KT 10SM CLR 08/03 A2998 RMK AO2 T00800025
KJXI 210615Z AUTO 16004KT 10SM CLR 08/03 A2998 RMK AO2 T00800025
KJXI 210555Z AUTO 00000KT 10SM CLR 08/03 A3000 RMK AO2 T00820025 10122 20082 401640005
KJXI 210535Z AUTO 14004KT 10SM CLR 09/03 A3000 RMK AO2 T00850025
KJXI 210515Z AUTO 16003KT 10SM CLR 09/02 A3002 RMK AO2 T00870022
KJXI 210455Z AUTO 14003KT 10SM CLR 09/02 A3002 RMK AO2 T00900021
KJXI 210435Z AUTO 16003KT 10SM CLR 10/02 A3002 RMK AO2 T00950021
KJXI 210415Z AUTO 15004KT 10SM CLR 10/02 A3002 RMK AO2 T00970020
KJXI 210355Z AUTO 16005KT 10SM CLR 10/02 A3002 RMK AO2 T01000020
KJXI 210335Z AUTO 15004KT 10SM CLR 10/02 A3001 RMK AO2 T01000016
KJXI 210315Z AUTO 16004KT 10SM TS CLR 10/02 A3002 RMK AO2 T01000015
KJXI 210255Z AUTO 15003KT 10SM CLR 10/01 A3002 RMK AO2 T00990013
KJXI 210235Z AUTO 15004KT 10SM CLR 10/01 A3002 RMK AO2 T01000013
KJXI 210215Z AUTO 15003KT 10SM TS CLR 10/01 A3002 RMK AO2 T01030012
KJXI 210155Z AUTO 16003KT 10SM CLR 11/01 A3002 RMK AO2 T01060012
KJXI 210135Z AUTO 15004KT 10SM CLR 11/01 A3003 RMK AO2 T01080011
KJXI 210115Z AUTO 15003KT 10SM CLR 11/02 A3003 RMK AO2 T01060015
KJXI 210055Z AUTO 15003KT 10SM CLR 11/01 A3004 RMK AO2 T01090014
KJXI 210035Z AUTO 16003KT 10SM CLR 11/02 A3004 RMK AO2 T01110016
KJXI 210015Z AUTO 00000KT 10SM TS CLR 11/02 A3004 RMK AO2 T01140015
KJXI 202355Z AUTO 00000KT 10SM CLR 12/01 A3004 RMK AO2 T01230011 10164 20123
KJXI 202335Z AUTO 00000KT 10SM CLR 13/01 A3004 RMK AO2 T01290010
KJXI 202315Z AUTO 15003KT 10SM CLR 14/01 A3004 RMK AO2 T01370006
KJXI 202255Z AUTO 16004KT 10SM CLR 15/00 A3004 RMK AO2 T01470001
KJXI 202235Z AUTO 16007KT 10SM CLR 16/00 A3005 RMK AO2 T01551002
KJXI 202215Z AUTO 17007KT 10SM CLR 16/M01 A3005 RMK AO2 T01581009
KJXI 202155Z AUTO 17006KT 10SM CLR 16/M01 A3005 RMK AO2 T01601010
KJXI 202135Z AUTO 18006KT 10SM CLR 16/M01 A3005 RMK AO2 T01631012
KJXI 202115Z AUTO 20006KT 10SM CLR 16/M01 A3006 RMK AO2 T01631007
KJXI 202055Z AUTO 15005KT 10SM CLR 16/M01 A3006 RMK AO2 T01611007
KJXI 202035Z AUTO 17009KT 10SM CLR 16/00 A3007 RMK AO2 T01621003
KJXI 202015Z AUTO 17011G15KT 10SM CLR 16/M01 A3007 RMK AO2 T01571012
KJXI 201955Z AUTO 19006G15KT 10SM CLR 16/00 A3008 RMK AO2 T01591001
KJXI 201935Z AUTO 19011G15KT 10SM CLR 16/00 A3009 RMK AO2 T01561002
KJXI 201915Z AUTO 16007KT 10SM CLR 16/00 A3011 RMK AO2 T01561002
KJXI 201855Z AUTO 16007KT 10SM CLR 15/00 A3012 RMK AO2 T01501001
KJXI 201835Z AUTO 17010G15KT 10SM CLR 16/00 A3013 RMK AO2 T01551004
KJXI 201815Z AUTO 17010KT 10SM TS CLR 15/00 A3015 RMK AO2 T01471003
KJXI 201755Z AUTO 14008KT 10SM CLR 14/01 A3017 RMK AO2 T01440005 10146 20005